createdAt,value
2022-09-10T00:01:19.372Z,100601.69
2022-09-10T00:03:46.078Z,100593.81
2022-09-10T00:06:12.546Z,100601.50
2022-09-10T00:08:39.494Z,100607.16
2022-09-10T00:11:07.257Z,100608.41
2022-09-10T00:13:34.432Z,100602.16
2022-09-10T00:16:02.145Z,100602.31
2022-09-10T00:18:29.437Z,100599.69
2022-09-10T00:20:56.389Z,100601.88
2022-09-10T00:23:25.073Z,100602.63
2022-09-10T00:25:54.870Z,100596.41
2022-09-10T00:28:22.187Z,100607.34
2022-09-10T00:30:49.807Z,100603.59
2022-09-10T00:33:17.100Z,100597.00
2022-09-10T00:35:43.860Z,100594.56
2022-09-10T00:38:10.993Z,100604.88
2022-09-10T00:40:37.668Z,100599.38
2022-09-10T00:43:06.544Z,100585.75
2022-09-10T00:45:36.148Z,100590.88
2022-09-10T00:48:05.034Z,100588.69
2022-09-10T00:50:35.962Z,100598.34
2022-09-10T00:53:03.833Z,100596.53
2022-09-10T00:55:31.552Z,100595.91
2022-09-10T00:58:00.463Z,100595.78
2022-09-10T01:00:26.805Z,100593.47
2022-09-10T01:02:53.518Z,100590.22
2022-09-10T01:05:19.950Z,100587.78
2022-09-10T01:07:48.040Z,100595.09
2022-09-10T01:10:18.008Z,100593.75
2022-09-10T01:13:03.267Z,100584.88
2022-09-10T01:15:46.065Z,100585.44
2022-09-10T01:18:12.435Z,100583.56
2022-09-10T01:20:55.995Z,100576.28
2022-09-10T01:23:41.503Z,100579.19
2022-09-10T01:26:11.315Z,100587.81
2022-09-10T01:28:56.072Z,100583.44
2022-09-10T01:31:22.670Z,100579.34
2022-09-10T01:33:55.603Z,100572.44
2022-09-10T01:36:25.491Z,100573.94
2022-09-10T01:38:52.235Z,100567.38
2022-09-10T01:41:24.053Z,100574.09
2022-09-10T01:43:50.404Z,100580.19
2022-09-10T01:46:29.846Z,100583.16
2022-09-10T01:49:18.267Z,100581.34
2022-09-10T01:51:57.785Z,100586.41
2022-09-10T01:54:25.330Z,100588.09
2022-09-10T01:57:09.103Z,100575.47
2022-09-10T01:59:54.325Z,100575.19
2022-09-10T02:02:26.944Z,100582.69
2022-09-10T02:04:53.863Z,100570.97
2022-09-10T02:07:22.527Z,100583.66
2022-09-10T02:09:51.556Z,100580.66
2022-09-10T02:12:19.132Z,100582.97
2022-09-10T02:15:00.445Z,100574.28
2022-09-10T02:17:53.617Z,100572.91
2022-09-10T02:20:21.993Z,100565.16
2022-09-10T02:22:53.477Z,100576.94
2022-09-10T02:25:20.084Z,100566.03
2022-09-10T02:27:46.653Z,100573.78
2022-09-10T02:30:13.341Z,100578.41
2022-09-10T02:32:39.783Z,100578.84
2022-09-10T02:35:06.936Z,100578.22
2022-09-10T02:37:33.339Z,100574.94
2022-09-10T02:39:59.959Z,100576.34
2022-09-10T02:42:26.936Z,100580.69
2022-09-10T02:44:53.824Z,100582.03
2022-09-10T02:47:20.243Z,100581.19
2022-09-10T02:49:46.979Z,100567.59
2022-09-10T02:52:13.389Z,100580.22
2022-09-10T02:54:40.176Z,100578.16
2022-09-10T02:57:07.563Z,100582.84
2022-09-10T02:59:34.648Z,100574.91
2022-09-10T03:02:01.090Z,100575.09
2022-09-10T03:04:27.537Z,100572.88
2022-09-10T03:06:54.862Z,100580.19
2022-09-10T03:09:21.997Z,100568.41
2022-09-10T03:11:48.891Z,100579.63
2022-09-10T03:14:20.159Z,100577.59
2022-09-10T03:16:47.406Z,100573.94
2022-09-10T03:19:14.309Z,100569.00
2022-09-10T03:21:41.484Z,100577.16
2022-09-10T03:24:12.653Z,100586.34
2022-09-10T03:26:41.732Z,100583.72
2022-09-10T03:29:08.253Z,100580.13
2022-09-10T03:31:39.530Z,100580.38
2022-09-10T03:34:06.139Z,100577.25
2022-09-10T03:36:32.510Z,100572.59
2022-09-10T03:38:59.459Z,100580.88
2022-09-10T03:41:28.301Z,100585.22
2022-09-10T03:43:58.073Z,100576.09
2022-09-10T03:46:25.811Z,100577.44
2022-09-10T03:48:55.438Z,100581.09
2022-09-10T03:51:24.216Z,100574.56
2022-09-10T03:53:50.598Z,100582.28
2022-09-10T03:56:19.991Z,100584.97
2022-09-10T03:58:49.047Z,100582.34
2022-09-10T04:01:16.526Z,100584.00
2022-09-10T04:03:46.292Z,100583.53
2022-09-10T04:06:13.794Z,100584.34
2022-09-10T04:08:40.540Z,100579.81
2022-09-10T04:11:09.380Z,100584.34
2022-09-10T04:13:35.790Z,100581.16
2022-09-10T04:16:02.538Z,100588.44
2022-09-10T04:18:29.512Z,100587.25
2022-09-10T04:20:56.355Z,100570.63
2022-09-10T04:23:23.478Z,100576.91
2022-09-10T04:25:50.666Z,100575.09
2022-09-10T04:28:17.071Z,100576.09
2022-09-10T04:30:47.024Z,100579.31
2022-09-10T04:33:14.259Z,100582.97
2022-09-10T04:35:42.522Z,100589.06
2022-09-10T04:38:10.983Z,100582.78
2022-09-10T04:40:38.931Z,100582.59
2022-09-10T04:43:05.697Z,100587.63
2022-09-10T04:45:36.249Z,100579.97
2022-09-10T04:48:07.021Z,100586.44
2022-09-10T04:50:34.296Z,100584.81
2022-09-10T04:53:10.910Z,100589.28
2022-09-10T04:55:39.776Z,100588.22
2022-09-10T04:58:06.743Z,100591.69
2022-09-10T05:00:33.470Z,100583.56
2022-09-10T05:02:59.901Z,100591.88
2022-09-10T05:05:26.337Z,100592.31
2022-09-10T05:07:53.414Z,100603.06
2022-09-10T05:10:20.449Z,100588.81
2022-09-10T05:12:48.006Z,100587.97
2022-09-10T05:15:14.719Z,100591.84
2022-09-10T05:17:41.134Z,100594.69
2022-09-10T05:20:08.061Z,100600.19
2022-09-10T05:22:40.810Z,100594.88
2022-09-10T05:25:08.268Z,100597.72
2022-09-10T05:27:34.983Z,100598.97
2022-09-10T05:30:02.087Z,100603.41
2022-09-10T05:32:29.449Z,100602.00
2022-09-10T05:34:56.646Z,100600.56
2022-09-10T05:37:23.560Z,100606.44
2022-09-10T05:39:50.097Z,100605.63
2022-09-10T05:42:18.626Z,100604.25
2022-09-10T05:44:45.158Z,100608.28
2022-09-10T05:47:11.522Z,100605.41
2022-09-10T05:49:37.911Z,100607.03
2022-09-10T05:52:04.763Z,100615.59
2022-09-10T05:54:31.252Z,100604.22
2022-09-10T05:56:58.596Z,100609.50
2022-09-10T05:59:25.007Z,100619.63
2022-09-10T06:01:53.517Z,100612.28
2022-09-10T06:04:21.507Z,100614.13
2022-09-10T06:06:47.915Z,100624.50
2022-09-10T06:09:14.415Z,100625.06
2022-09-10T06:11:49.504Z,100631.94
2022-09-10T06:14:17.236Z,100630.56
2022-09-10T06:16:43.691Z,100625.88
2022-09-10T06:19:10.960Z,100634.38
2022-09-10T06:21:37.391Z,100635.84
2022-09-10T06:24:03.981Z,100632.56
2022-09-10T06:26:33.558Z,100638.84
2022-09-10T06:29:05.192Z,100642.09
2022-09-10T06:31:34.672Z,100645.56
2022-09-10T06:34:01.818Z,100640.84
2022-09-10T06:36:30.027Z,100643.72
2022-09-10T06:38:57.960Z,100641.47
2022-09-10T06:41:24.824Z,100645.72
2022-09-10T06:44:02.945Z,100654.06
2022-09-10T06:49:25.593Z,100653.28
2022-09-10T06:51:52.270Z,100652.84
2022-09-10T06:54:18.969Z,100663.00
2022-09-10T06:56:47.083Z,100660.75
2022-09-10T06:59:18.253Z,100661.97
2022-09-10T07:01:48.274Z,100668.44
2022-09-10T07:04:15.939Z,100663.59
2022-09-10T07:06:43.115Z,100665.00
2022-09-10T07:09:16.386Z,100662.19
2022-09-10T07:11:53.104Z,100671.88
2022-09-10T07:14:19.518Z,100671.28
2022-09-10T07:16:47.106Z,100666.25
2022-09-10T07:19:14.970Z,100672.91
2022-09-10T07:21:44.748Z,100670.69
2022-09-10T07:24:14.388Z,100667.84
2022-09-10T07:27:01.026Z,100662.97
2022-09-10T07:29:31.008Z,100667.63
2022-09-10T07:31:57.875Z,100668.44
2022-09-10T07:34:24.743Z,100679.59
2022-09-10T07:36:51.310Z,100681.41
2022-09-10T07:39:24.918Z,100681.59
2022-09-10T07:41:52.249Z,100680.38
2022-09-10T07:44:23.390Z,100678.56
2022-09-10T07:46:49.805Z,100686.28
2022-09-10T07:49:17.011Z,100683.22
2022-09-10T07:51:46.916Z,100684.66
2022-09-10T07:54:15.867Z,100683.41
2022-09-10T07:56:46.638Z,100684.84
2022-09-10T07:59:15.128Z,100683.44
2022-09-10T08:01:47.972Z,100687.69
2022-09-10T08:04:16.452Z,100689.50
2022-09-10T08:06:42.929Z,100684.03
2022-09-10T08:09:09.632Z,100677.13
2022-09-10T08:11:41.536Z,100688.84
2022-09-10T08:14:11.016Z,100685.84
2022-09-10T08:16:41.231Z,100685.03
2022-09-10T08:19:13.726Z,100677.34
2022-09-10T08:21:40.540Z,100684.00
2022-09-10T08:24:08.605Z,100685.16
2022-09-10T08:26:35.639Z,100688.00
2022-09-10T08:29:05.288Z,100690.47
2022-09-10T08:31:31.757Z,100694.72
2022-09-10T08:34:08.235Z,100696.13
2022-09-10T08:36:36.919Z,100694.50
2022-09-10T08:39:08.087Z,100684.13
2022-09-10T08:41:35.711Z,100688.00
2022-09-10T08:44:03.857Z,100694.72
2022-09-10T08:46:37.179Z,100684.69
2022-09-10T08:49:12.715Z,100675.34
2022-09-10T08:51:44.955Z,100677.00
2022-09-10T08:54:15.437Z,100677.88
2022-09-10T08:56:42.688Z,100686.16
2022-09-10T08:59:21.285Z,100683.53
2022-09-10T09:01:55.360Z,100685.38
2022-09-10T09:04:32.186Z,100682.72
2022-09-10T09:07:00.343Z,100690.66
2022-09-10T09:09:26.986Z,100694.97
2022-09-10T09:11:53.338Z,100697.59
2022-09-10T09:14:39.494Z,100690.31
2022-09-10T09:17:14.737Z,100701.66
2022-09-10T09:19:49.302Z,100693.75
2022-09-10T09:22:17.944Z,100683.22
2022-09-10T09:24:52.849Z,100681.59
2022-09-10T09:27:20.104Z,100684.03
2022-09-10T09:29:51.203Z,100691.94
2022-09-10T09:32:20.343Z,100693.16
2022-09-10T09:34:50.417Z,100693.75
2022-09-10T09:37:24.099Z,100696.00
2022-09-10T09:39:54.034Z,100686.66
2022-09-10T09:42:42.624Z,100693.75
2022-09-10T09:45:43.950Z,100684.88
2022-09-10T09:48:15.695Z,100690.09
2022-09-10T09:50:45.530Z,100687.88
2022-09-10T09:53:25.268Z,100673.28
2022-09-10T09:55:56.290Z,100678.97
2022-09-10T09:58:23.965Z,100680.56
2022-09-10T10:00:54.867Z,100676.56
2022-09-10T10:03:25.505Z,100678.38
2022-09-10T10:06:00.982Z,100674.13
2022-09-10T10:08:30.681Z,100680.00
2022-09-10T10:10:57.516Z,100675.75
2022-09-10T10:13:24.125Z,100677.56
2022-09-10T10:15:50.681Z,100682.22
2022-09-10T10:18:23.212Z,100662.78
2022-09-10T10:21:04.047Z,100675.94
2022-09-10T10:23:37.431Z,100674.66
2022-09-10T10:26:17.040Z,100682.38
2022-09-10T10:28:59.688Z,100677.97
2022-09-10T10:31:38.660Z,100679.38
2022-09-10T10:34:18.795Z,100678.75
2022-09-10T10:36:52.209Z,100669.47
2022-09-10T10:39:28.436Z,100678.16
2022-09-10T10:42:01.227Z,100672.91
2022-09-10T10:44:27.573Z,100687.47
2022-09-10T10:47:13.235Z,100684.44
2022-09-10T10:50:01.037Z,100678.56
2022-09-10T10:52:33.956Z,100693.75
2022-09-10T10:55:00.326Z,100684.22
2022-09-10T10:57:39.094Z,100691.94
2022-09-10T11:00:09.591Z,100694.31
2022-09-10T11:02:54.854Z,100671.75
2022-09-10T11:05:40.029Z,100681.19
2022-09-10T11:08:09.076Z,100690.94
2022-09-10T11:10:54.139Z,100688.88
2022-09-10T11:13:21.710Z,100696.19
2022-09-10T11:16:02.603Z,100684.81
2022-09-10T11:18:34.921Z,100680.34
2022-09-10T11:21:04.059Z,100684.63
2022-09-10T11:23:39.305Z,100693.56
2022-09-10T11:26:20.971Z,100689.69
2022-09-10T11:28:54.300Z,100688.06
2022-09-10T11:31:41.879Z,100693.31
2022-09-10T11:34:14.574Z,100693.28
2022-09-10T11:36:45.231Z,100682.94
2022-09-10T11:39:17.744Z,100688.03
2022-09-10T11:41:45.783Z,100683.56
2022-09-10T11:44:15.176Z,100681.91
2022-09-10T11:46:41.540Z,100679.91
2022-09-10T11:49:14.066Z,100687.59
2022-09-10T11:51:41.649Z,100691.25
2022-09-10T11:54:18.638Z,100686.16
2022-09-10T11:56:46.065Z,100690.25
2022-09-10T11:59:12.413Z,100686.56
2022-09-10T12:01:41.802Z,100692.84
2022-09-10T12:04:08.682Z,100691.03
2022-09-10T12:06:44.302Z,100695.47
2022-09-10T12:09:29.568Z,100694.84
2022-09-10T12:12:14.904Z,100691.81
2022-09-10T12:14:41.418Z,100692.34
2022-09-10T12:17:14.467Z,100685.25
2022-09-10T12:19:46.097Z,100697.72
2022-09-10T12:22:26.693Z,100685.75
2022-09-10T12:25:00.890Z,100690.03
2022-09-10T12:27:46.119Z,100694.50
2022-09-10T12:30:24.610Z,100692.81
2022-09-10T12:32:52.870Z,100692.16
2022-09-10T12:35:31.469Z,100691.84
2022-09-10T12:38:17.289Z,100688.53
2022-09-10T12:40:44.896Z,100688.16
2022-09-10T12:43:29.722Z,100692.75
2022-09-10T12:46:05.522Z,100686.69
2022-09-10T12:48:34.711Z,100685.53
2022-09-10T12:51:05.947Z,100683.97
2022-09-10T12:53:41.604Z,100677.50
2022-09-10T12:56:23.531Z,100668.38
2022-09-10T12:59:08.740Z,100668.50
2022-09-10T13:01:39.055Z,100663.97
2022-09-10T13:04:06.155Z,100670.69
2022-09-10T13:06:38.125Z,100661.84
2022-09-10T13:09:15.916Z,100658.94
2022-09-10T13:11:45.644Z,100657.66
2022-09-10T13:14:16.870Z,100667.25
2022-09-10T13:16:43.538Z,100666.69
2022-09-10T13:19:12.668Z,100676.41
2022-09-10T13:21:51.550Z,100675.34
2022-09-10T13:24:33.884Z,100680.53
2022-09-10T13:27:12.539Z,100678.84
2022-09-10T13:29:44.769Z,100680.22
2022-09-10T13:32:14.257Z,100685.41
2022-09-10T13:34:59.103Z,100692.75
2022-09-10T13:37:33.519Z,100692.00
2022-09-10T13:40:19.863Z,100672.28
2022-09-10T13:42:54.736Z,100687.56
2022-09-10T13:45:29.296Z,100693.81
2022-09-10T13:47:58.678Z,100692.47
2022-09-10T13:50:26.895Z,100695.88
2022-09-10T13:52:55.159Z,100692.91
2022-09-10T13:55:23.883Z,100699.03
2022-09-10T13:57:51.822Z,100699.16
2022-09-10T14:00:20.517Z,100702.13
2022-09-10T14:02:48.767Z,100692.59
2022-09-10T14:05:30.600Z,100690.75
2022-09-10T14:08:01.757Z,100691.94
2022-09-10T14:10:28.506Z,100692.94
2022-09-10T14:12:55.832Z,100683.19
2022-09-10T14:15:26.247Z,100690.44
2022-09-10T14:17:57.318Z,100689.69
2022-09-10T14:20:23.665Z,100684.09
2022-09-10T14:22:58.322Z,100676.63
2022-09-10T14:25:31.100Z,100677.00
2022-09-10T14:28:15.570Z,100677.72
2022-09-10T14:30:43.233Z,100685.84
2022-09-10T14:33:28.216Z,100695.97
2022-09-10T14:35:55.376Z,100702.56
2022-09-10T14:38:26.780Z,100708.16
2022-09-10T14:41:08.453Z,100713.03
2022-09-10T14:43:37.940Z,100717.00
2022-09-10T14:46:07.794Z,100719.63
2022-09-10T14:48:39.132Z,100712.63
2022-09-10T14:51:23.866Z,100716.84
2022-09-10T14:53:54.617Z,100720.63
2022-09-10T14:56:28.188Z,100725.94
2022-09-10T14:59:05.962Z,100722.94
2022-09-10T15:01:32.432Z,100716.41
2022-09-10T15:04:01.838Z,100723.25
2022-09-10T15:06:28.209Z,100718.84
2022-09-10T15:08:56.191Z,100712.38
2022-09-10T15:11:24.224Z,100718.53
2022-09-10T15:13:51.109Z,100717.06
2022-09-10T15:16:17.816Z,100720.03
2022-09-10T15:18:44.309Z,100725.94
2022-09-10T15:21:14.013Z,100720.16
2022-09-10T15:23:41.952Z,100717.97
2022-09-10T15:26:11.344Z,100715.50
2022-09-10T15:28:37.721Z,100715.28
2022-09-10T15:31:04.516Z,100726.94
2022-09-10T15:33:30.980Z,100716.47
2022-09-10T15:35:58.474Z,100722.28
2022-09-10T15:38:25.642Z,100724.56
2022-09-10T15:40:54.934Z,100726.00
2022-09-10T15:43:24.264Z,100733.78
2022-09-10T15:45:50.663Z,100734.81
2022-09-10T15:48:17.011Z,100737.28
2022-09-10T15:50:44.797Z,100743.66
2022-09-10T15:53:12.159Z,100742.56
2022-09-10T15:55:39.198Z,100742.25
2022-09-10T15:58:06.255Z,100737.25
2022-09-10T16:00:34.987Z,100745.25
2022-09-10T16:03:01.948Z,100741.78
2022-09-10T16:05:28.658Z,100749.94
2022-09-10T16:07:55.129Z,100747.34
2022-09-10T16:10:21.477Z,100752.81
2022-09-10T16:12:48.451Z,100754.47
2022-09-10T16:15:14.947Z,100753.59
2022-09-10T16:17:42.155Z,100763.34
2022-09-10T16:20:08.793Z,100771.75
2022-09-10T16:22:35.253Z,100771.16
2022-09-10T16:25:01.669Z,100763.69
2022-09-10T16:27:28.020Z,100768.44
2022-09-10T16:29:54.422Z,100776.63
2022-09-10T16:32:20.968Z,100770.09
2022-09-10T16:34:47.302Z,100771.03
2022-09-10T16:37:14.125Z,100769.66
2022-09-10T16:39:40.661Z,100774.59
2022-09-10T16:42:08.078Z,100777.66
2022-09-10T16:44:34.670Z,100778.84
2022-09-10T16:47:01.888Z,100784.72
2022-09-10T16:49:28.241Z,100782.25
2022-09-10T16:51:54.766Z,100788.09
2022-09-10T16:54:22.345Z,100796.84
2022-09-10T16:56:48.940Z,100798.56
2022-09-10T16:59:22.879Z,100794.03
2022-09-10T17:01:49.847Z,100798.56
2022-09-10T17:04:21.315Z,100803.78
2022-09-10T17:06:51.014Z,100815.75
2022-09-10T17:09:17.347Z,100811.47
2022-09-10T17:11:43.689Z,100808.84
2022-09-10T17:14:11.400Z,100809.84
2022-09-10T17:16:39.103Z,100817.94
2022-09-10T17:19:15.151Z,100825.53
2022-09-10T17:21:43.087Z,100826.53
2022-09-10T17:24:10.876Z,100830.16
2022-09-10T17:26:37.926Z,100829.13
2022-09-10T17:29:06.210Z,100838.31
2022-09-10T17:31:33.272Z,100842.00
2022-09-10T17:34:00.828Z,100852.16
2022-09-10T17:36:27.972Z,100855.84
2022-09-10T17:38:54.819Z,100853.34
2022-09-10T17:41:22.316Z,100862.69
2022-09-10T17:43:49.626Z,100867.75
2022-09-10T17:46:18.109Z,100866.91
2022-09-10T17:48:45.640Z,100864.69
2022-09-10T17:51:13.812Z,100877.91
2022-09-10T17:53:40.457Z,100876.06
2022-09-10T17:56:07.809Z,100876.47
2022-09-10T17:58:34.613Z,100885.03
2022-09-10T18:01:02.303Z,100891.34
2022-09-10T18:03:31.466Z,100890.72
2022-09-10T18:06:11.410Z,100896.22
2022-09-10T18:08:38.444Z,100896.22
2022-09-10T18:11:06.391Z,100903.72
2022-09-10T18:13:34.076Z,100900.47
2022-09-10T18:16:06.435Z,100908.78
2022-09-10T18:18:36.215Z,100907.97
2022-09-10T18:21:11.974Z,100908.19
2022-09-10T18:23:39.053Z,100911.03
2022-09-10T18:26:12.577Z,100921.56
2022-09-10T18:28:38.899Z,100928.47
2022-09-10T18:31:05.493Z,100932.94
2022-09-10T18:33:41.018Z,100940.03
2022-09-10T18:36:14.811Z,100940.59
2022-09-10T18:38:41.245Z,100942.66
2022-09-10T18:41:17.836Z,100945.50
2022-09-10T18:43:45.184Z,100950.38
2022-09-10T18:46:11.767Z,100957.06
2022-09-10T18:48:38.284Z,100954.44
2022-09-10T18:51:05.904Z,100953.22
2022-09-10T18:53:33.132Z,100972.06
2022-09-10T18:56:05.057Z,100982.84
2022-09-10T18:58:31.411Z,100978.16
2022-09-10T19:01:03.251Z,100974.91
2022-09-10T19:03:33.478Z,100986.88
2022-09-10T19:06:01.948Z,100984.66
2022-09-10T19:08:28.302Z,100997.84
2022-09-10T19:10:58.663Z,100994.78
2022-09-10T19:13:25.211Z,101000.47
2022-09-10T19:15:55.918Z,100999.03
2022-09-10T19:18:22.384Z,100988.50
2022-09-10T19:20:48.722Z,100998.22
2022-09-10T19:23:19.629Z,101002.69
2022-09-10T19:25:51.225Z,101003.94
2022-09-10T19:28:17.618Z,101013.84
2022-09-10T19:30:44.126Z,101007.75
2022-09-10T19:33:10.595Z,101017.72
2022-09-10T19:35:36.954Z,101016.09
2022-09-10T19:38:15.772Z,101019.06
2022-09-10T19:40:49.667Z,101023.56
2022-09-10T19:43:16.299Z,101031.47
2022-09-10T19:45:43.827Z,101038.19
2022-09-10T19:48:10.207Z,101039.13
2022-09-10T19:50:39.855Z,101035.53
2022-09-10T19:53:06.234Z,101047.44
2022-09-10T19:55:34.727Z,101044.59
2022-09-10T19:58:01.420Z,101042.44
2022-09-10T20:00:45.892Z,101045.69
2022-09-10T20:03:12.925Z,101049.34
2022-09-10T20:05:39.348Z,101040.03
2022-09-10T20:08:05.706Z,101042.44
2022-09-10T20:10:32.068Z,101053.38
2022-09-10T20:12:58.423Z,101046.63
2022-09-10T20:15:24.799Z,101047.03
2022-09-10T20:17:51.341Z,101059.81
2022-09-10T20:20:20.827Z,101057.63
2022-09-10T20:22:47.185Z,101060.50
2022-09-10T20:25:13.584Z,101059.91
2022-09-10T20:27:39.908Z,101060.34
2022-09-10T20:30:06.582Z,101070.88
2022-09-10T20:32:32.937Z,101060.94
2022-09-10T20:34:59.348Z,101067.44
2022-09-10T20:37:25.699Z,101063.56
2022-09-10T20:39:53.100Z,101068.81
2022-09-10T20:42:19.676Z,101063.13
2022-09-10T20:44:46.059Z,101071.47
2022-09-10T20:47:12.731Z,101070.28
2022-09-10T20:49:39.073Z,101070.66
2022-09-10T20:52:05.419Z,101076.38
2022-09-10T20:54:31.789Z,101081.25
2022-09-10T20:56:58.133Z,101078.81
2022-09-10T20:59:27.710Z,101090.75
2022-09-10T21:01:56.378Z,101082.25
2022-09-10T21:04:22.794Z,101089.75
2022-09-10T21:06:49.149Z,101092.38
2022-09-10T21:09:15.520Z,101090.53
2022-09-10T21:11:41.978Z,101105.31
2022-09-10T21:14:08.750Z,101102.53
2022-09-10T21:16:36.242Z,101103.78
2022-09-10T21:19:07.778Z,101104.75
2022-09-10T21:21:35.161Z,101104.72
2022-09-10T21:24:06.160Z,101112.25
2022-09-10T21:26:33.709Z,101106.09
2022-09-10T21:29:02.254Z,101113.34
2022-09-10T21:31:29.258Z,101109.91
2022-09-10T21:34:03.106Z,101109.75
2022-09-10T21:36:30.871Z,101109.16
2022-09-10T21:38:58.795Z,101107.56
2022-09-10T21:41:27.731Z,101113.84
2022-09-10T21:43:54.144Z,101116.28
2022-09-10T21:46:20.630Z,101118.50
2022-09-10T21:48:47.021Z,101115.69
2022-09-10T21:51:14.459Z,101121.22
2022-09-10T21:53:41.697Z,101126.06
2022-09-10T21:56:08.176Z,101117.91
2022-09-10T21:58:35.296Z,101122.75
2022-09-10T22:01:01.836Z,101127.84
2022-09-10T22:03:28.970Z,101126.25
2022-09-10T22:06:05.554Z,101128.88
2022-09-10T22:08:33.200Z,101130.09
2022-09-10T22:11:04.149Z,101131.91
2022-09-10T22:13:30.489Z,101134.75
2022-09-10T22:15:58.230Z,101137.59
2022-09-10T22:18:26.112Z,101141.03
2022-09-10T22:20:55.757Z,101147.91
2022-09-10T22:23:22.119Z,101142.25
2022-09-10T22:25:48.471Z,101145.28
2022-09-10T22:28:14.845Z,101142.06
2022-09-10T22:30:42.264Z,101143.03
2022-09-10T22:33:08.623Z,101149.06
2022-09-10T22:35:35.043Z,101147.63
2022-09-10T22:38:01.372Z,101160.00
2022-09-10T22:40:27.805Z,101158.25
2022-09-10T22:42:54.135Z,101167.38
2022-09-10T22:45:21.045Z,101163.50
2022-09-10T22:47:47.720Z,101165.56
2022-09-10T22:50:15.149Z,101170.38
2022-09-10T22:52:43.508Z,101165.56
2022-09-10T22:55:10.048Z,101165.09
2022-09-10T22:57:36.382Z,101172.63
2022-09-10T23:00:03.377Z,101174.84
2022-09-10T23:02:29.719Z,101173.69
2022-09-10T23:04:56.107Z,101179.78
2022-09-10T23:07:22.480Z,101183.66
2022-09-10T23:09:48.832Z,101181.03
2022-09-10T23:12:15.178Z,101172.91
2022-09-10T23:14:41.580Z,101171.09
2022-09-10T23:17:07.927Z,101178.22
2022-09-10T23:19:34.293Z,101179.59
2022-09-10T23:22:00.659Z,101185.91
2022-09-10T23:24:27.816Z,101182.91
2022-09-10T23:26:54.519Z,101178.88
2022-09-10T23:29:23.282Z,101175.44
2022-09-10T23:31:50.993Z,101177.91
2022-09-10T23:34:18.061Z,101187.00
2022-09-10T23:36:45.125Z,101178.72
2022-09-10T23:39:13.147Z,101189.44
2022-09-10T23:41:40.839Z,101191.97
2022-09-10T23:44:07.828Z,101187.94
2022-09-10T23:46:34.503Z,101182.03
2022-09-10T23:49:01.827Z,101184.66
2022-09-10T23:51:28.868Z,101189.78
2022-09-10T23:53:55.913Z,101188.97
2022-09-10T23:56:23.197Z,101189.56
2022-09-10T23:58:49.556Z,101186.72
